Hyannis, MA

1:32 AM EDT on October 23, 2014 (GMT -0400)
Martha's Vineyard | Change Station
CLOSE
Current Station
Airport
Location: Martha's Vineyard,
Elevation: 69 ft
Nearby Weather Stations
Active Advisory: Areal Flood Watch Active Notice: Public Information Statement

Elev 69 ft 41.39 °N, 70.61 °W | Updated 39 minutes ago

Thunderstorm
Thunderstorm
60 °F
Feels Like 60 °F
N
12
Wind Variable Wind from East
Gusts 25 mph

Today
High -- | Low -- °F
--% Chance of Precip.
Yesterday
High -- | Low -- °F
Precip. -- in
7:02 AM 5:47 PM
Waning Crescent, 0% visible
Pressure 29.65 in
Visibility 10.0 miles
Clouds Overcast 600 ft
Dew Point 59 °F
Humidity 96%
Rainfall 0.00 in
Snow Depth Not available.
UV 0 out of 12
Pollen .30 out of 12
Air Quality Not available.
Flu Activity No Activity
METAR KMVY 230453Z 09010G22KT 10SM OVC006 16/15 A2964 RMK AO2 LTG DSNT NE SLP038 T01560150 401610106

More Conditions Fewer Conditions

Pressure 29.65 in
Visibility 10.0 miles
Clouds Overcast 600 ft
Dew Point 59 °F
Humidity 96%
Rainfall 0.00 in
Snow Depth Not available.
UV 0 out of 12
Pollen .30 out of 12
Air Quality Not available.
Flu Activity No Activity
METAR KMVY 230453Z 09010G22KT 10SM OVC006 16/15 A2964 RMK AO2 LTG DSNT NE SLP038 T01560150 401610106

More Conditions Fewer Conditions

10-Day Weather Forecast

Almanac

Astronomy

Oct. 23, 2014 Rise Set
Actual Time 7:02 AM EDT 5:47 PM EDT
Civil Twilight 6:34 AM EDT 6:16 PM EDT
Nautical Twilight 6:01 AM EDT 6:48 PM EDT
Astronomical Twilight 5:29 AM EDT 7:20 PM EDT
Moon 6:38 AM EDT 5:47 PM EDT
Length of Visible Light 11h 42m
Length of Day
10h 45m
Tomorrow will be 2m 36s shorter.
Waning Crescent, 0% of the Moon is Illuminated
Today
Waning Crescent
Oct 23
New
Oct 30
First Quarter
Nov 6
Full
Nov 14
Last Quarter

Today's Extremes

State Highs State Lows

Community

WunderPhotos

Upload Photos

1,764,184 photos uploaded!

Nearby

Air Quality

  Air Quality AQ Index Pollutant
Yesterday Good
OZONE
Thursday Good
PM2.5

Snow Depth

Station Depth Elevation
No new snow has been reported.

Earthquake Activity

City Distance Mag. Time & Date
No recent earthquake activity has been reported nearby.
Minimum magnitude displayed is 2.5.

Coastal Water Temperatures

Place Temperature
Nantucket Island, MA 59.0 °F
Woods Hole, MA 61.0 °F
Fall River, MA 62.1 °F
Boston, MA 57.0 °F

Nearby Weather Stations